Time;durP1;ratioP1;P1;durP2;ratioP2;P2;SDS_P1;SDS_P2;PMS_P1;PMS_P2;Temp;Humidity;BMP_temperature;BMP_pressure;BME280_temperature;BME280_humidity;BME280_pressure;Samples;Min_cycle;Max_cycle;Signal;HPM_P1;HPM_P2
2023/04/02 00:01:38;;;;;;;;;;;;;;;;;;4877825;29;19975;-83
2023/04/02 00:04:04;;;;;;;;;;;;;;;;;;4877278;29;19971;-83
2023/04/02 00:06:33;;;;;;;;;;;;;;;;;;4925339;29;19920;-81
2023/04/02 00:09:01;;;;;;;;;;;;;;;;;;4912394;29;19958;-81
2023/04/02 00:11:27;;;;;;;;;;;;;;;;;;4869200;29;19923;-81
2023/04/02 00:13:52;;;;;;;;;;;;;;;;;;4901168;29;19920;-81
2023/04/02 00:16:26;;;;;;;;;;;;;;;;;;4870102;29;19904;-81
2023/04/02 00:18:51;;;;;;;;;;;;;;;;;;4886262;29;19983;-80
2023/04/02 00:21:17;;;;;;;;;;;;;;;;;;4900449;29;19916;-80
2023/04/02 00:23:43;;;;;;;;;;;;;;;;;;4902390;29;20007;-81
2023/04/02 00:26:08;;;;;;;;;;;;;;;;;;4885581;29;19944;-80
2023/04/02 00:28:34;;;;;;;;;;;;;;;;;;4918865;29;19900;-82
2023/04/02 00:31:00;;;;;;;;;;;;;;;;;;4959421;23;19927;-77
2023/04/02 00:33:25;;;;;;;;;;;;;;;;;;4898094;29;19915;-79
2023/04/02 00:35:51;;;;;;;;;;;;;;;;;;4930419;29;19943;-77
2023/04/02 00:38:16;;;;;;;;;;;;;;;;;;4914857;29;20298;-79
2023/04/02 00:40:42;;;;;;;;;;;;;;;;;;4913580;29;19911;-78
2023/04/02 00:43:07;;;;;;;;;;;;;;;;;;4914019;29;19951;-77
2023/04/02 00:45:33;;;;;;;;;;;;;;;;;;4914157;29;19923;-78
2023/04/02 00:47:58;;;;;;;;;;;;;;;;;;4930939;29;19915;-78
2023/04/02 00:50:24;;;;;;;;;;;;;;;;;;4913324;29;19915;-78
2023/04/02 00:52:50;;;;;;;;;;;;;;;;;;4913976;29;19915;-78
2023/04/02 00:55:16;;;;;;;;;;;;;;;;;;4929822;29;19919;-79
2023/04/02 00:57:43;;;;;;;;;;;;;;;;;;4913540;29;19918;-77
2023/04/02 01:00:10;;;;;;;;;;;;;;;;;;4898317;29;20001;-78
2023/04/02 01:02:39;;;;;;;;;;;;;;;;;;4929997;29;20406;-77
2023/04/02 01:05:05;;;;;;;;;;;;;;;;;;4929015;29;19961;-78
2023/04/02 01:07:31;;;;;;;;;;;;;;;;;;4929337;29;19939;-78
2023/04/02 01:09:56;;;;;;;;;;;;;;;;;;4928725;29;19921;-79
2023/04/02 01:12:22;;;;;;;;;;;;;;;;;;4914212;29;19922;-78
2023/04/02 01:14:51;;;;;;;;;;;;;;;;;;4912733;29;19927;-77
2023/04/02 01:17:18;;;;;;;;;;;;;;;;;;4911382;29;19915;-79
2023/04/02 01:19:44;;;;;;;;;;;;;;;;;;4911949;29;19978;-78
2023/04/02 01:22:10;;;;;;;;;;;;;;;;;;4910607;29;20321;-78
2023/04/02 01:24:37;;;;;;;;;;;;;;;;;;4911159;29;19939;-78
2023/04/02 01:27:03;;;;;;;;;;;;;;;;;;4910938;29;19939;-78
2023/04/02 01:29:31;;;;;;;;;;;;;;;;;;4908625;29;19911;-79
2023/04/02 01:31:58;;;;;;;;;;;;;;;;;;4897148;29;19919;-79
2023/04/02 01:34:23;;;;;;;;;;;;;;;;;;4913366;29;19943;-79
2023/04/02 01:36:55;;;;;;;;;;;;;;;;;;4898734;29;19942;-79
2023/04/02 01:39:27;;;;;;;;;;;;;;;;;;4896896;29;20009;-77
2023/04/02 01:41:56;;;;;;;;;;;;;;;;;;4912888;29;19926;-79
2023/04/02 01:44:21;;;;;;;;;;;;;;;;;;4911872;29;19916;-78
2023/04/02 01:46:47;;;;;;;;;;;;;;;;;;4929047;29;19938;-79
2023/04/02 01:49:13;;;;;;;;;;;;;;;;;;4929201;29;19967;-79
2023/04/02 01:51:42;;;;;;;;;;;;;;;;;;4927747;29;20446;-79
2023/04/02 01:54:11;;;;;;;;;;;;;;;;;;4914478;29;19919;-79
2023/04/02 01:56:38;;;;;;;;;;;;;;;;;;4929366;29;19922;-77
2023/04/02 01:59:09;;;;;;;;;;;;;;;;;;4916862;29;19922;-79
2023/04/02 02:01:37;;;;;;;;;;;;;;;;;;4919077;29;19915;-79
2023/04/02 02:04:03;;;;;;;;;;;;;;;;;;4918769;29;19915;-79
2023/04/02 02:06:30;;;;;;;;;;;;;;;;;;4935994;29;19926;-78
2023/04/02 02:08:55;;;;;;;;;;;;;;;;;;4921011;29;20386;-78
2023/04/02 02:11:23;;;;;;;;;;;;;;;;;;4922431;29;19947;-79
2023/04/02 02:13:51;;;;;;;;;;;;;;;;;;4932283;29;19926;-79
2023/04/02 02:16:17;;;;;;;;;;;;;;;;;;4933534;29;19915;-80
2023/04/02 02:18:43;;;;;;;;;;;;;;;;;;4919160;29;19925;-78
2023/04/02 02:21:09;;;;;;;;;;;;;;;;;;4936539;29;19954;-79
2023/04/02 02:23:35;;;;;;;;;;;;;;;;;;4936068;29;19915;-79
2023/04/02 02:26:03;;;;;;;;;;;;;;;;;;4919782;29;19958;-79
2023/04/02 02:28:29;;;;;;;;;;;;;;;;;;4918900;29;19986;-79
2023/04/02 02:30:55;;;;;;;;;;;;;;;;;;4919066;29;19919;-77
2023/04/02 02:33:21;;;;;;;;;;;;;;;;;;4936581;29;19915;-79
2023/04/02 02:35:50;;;;;;;;;;;;;;;;;;4938846;29;19915;-79
2023/04/02 02:38:18;;;;;;;;;;;;;;;;;;4922349;29;19915;-79
2023/04/02 02:40:48;;;;;;;;;;;;;;;;;;4938273;29;19915;-79
2023/04/02 02:43:14;;;;;;;;;;;;;;;;;;4938047;29;19915;-80
2023/04/02 02:45:40;;;;;;;;;;;;;;;;;;4937516;29;19915;-78
2023/04/02 02:48:06;;;;;;;;;;;;;;;;;;4938809;29;19951;-78
2023/04/02 02:50:34;;;;;;;;;;;;;;;;;;4939174;29;19915;-79
2023/04/02 02:53:05;;;;;;;;;;;;;;;;;;4906255;29;20388;-79
2023/04/02 02:55:36;;;;;;;;;;;;;;;;;;4907865;29;19911;-79
2023/04/02 02:58:09;;;;;;;;;;;;;;;;;;4921911;29;19922;-80
2023/04/02 03:01:01;;;;;;;;;;;;;;;;;;4934322;29;19916;-79
2023/04/02 03:03:27;;;;;;;;;;;;;;;;;;4902876;29;19975;-79
2023/04/02 03:05:58;;;;;;;;;;;;;;;;;;4903105;29;19915;-78
2023/04/02 03:08:35;;;;;;;;;;;;;;;;;;4920864;29;19948;-79
2023/04/02 03:11:02;;;;;;;;;;;;;;;;;;4904078;29;19944;-79
2023/04/02 03:13:46;;;;;;;;;;;;;;;;;;4903508;29;19982;-79
2023/04/02 03:16:13;;;;;;;;;;;;;;;;;;4918655;29;19922;-79
2023/04/02 03:18:39;;;;;;;;;;;;;;;;;;4918516;29;19923;-79
2023/04/02 03:21:05;;;;;;;;;;;;;;;;;;4933708;29;19915;-80
2023/04/02 03:23:31;;;;;;;;;;;;;;;;;;4934238;29;20002;-79
2023/04/02 03:25:57;;;;;;;;;;;;;;;;;;4918360;29;19939;-79
2023/04/02 03:28:25;;;;;;;;;;;;;;;;;;4917968;29;19958;-79
2023/04/02 03:30:54;;;;;;;;;;;;;;;;;;4917668;29;19926;-79
2023/04/02 03:33:21;;;;;;;;;;;;;;;;;;4917256;29;19915;-79
2023/04/02 03:35:47;;;;;;;;;;;;;;;;;;4918074;29;20367;-78
2023/04/02 03:38:13;;;;;;;;;;;;;;;;;;4917925;29;19950;-78
2023/04/02 03:40:41;;;;;;;;;;;;;;;;;;4917714;29;19915;-77
2023/04/02 03:43:10;;;;;;;;;;;;;;;;;;4901931;29;19915;-79
2023/04/02 03:45:38;;;;;;;;;;;;;;;;;;4933830;29;19973;-78
2023/04/02 03:48:03;;;;;;;;;;;;;;;;;;4934032;29;19915;-79
2023/04/02 03:50:30;;;;;;;;;;;;;;;;;;4932860;29;19919;-80
2023/04/02 03:52:58;;;;;;;;;;;;;;;;;;4901482;29;20338;-79
2023/04/02 03:55:24;;;;;;;;;;;;;;;;;;4916857;29;19919;-79
2023/04/02 03:57:50;;;;;;;;;;;;;;;;;;4901779;29;19915;-79
2023/04/02 04:00:16;;;;;;;;;;;;;;;;;;4933599;29;19948;-79
2023/04/02 04:02:42;;;;;;;;;;;;;;;;;;4917880;29;19920;-78
2023/04/02 04:05:07;;;;;;;;;;;;;;;;;;4903105;29;19915;-77
2023/04/02 04:07:33;;;;;;;;;;;;;;;;;;4933456;29;19922;-78
2023/04/02 04:09:59;;;;;;;;;;;;;;;;;;4933177;29;19941;-78
2023/04/02 04:12:25;;;;;;;;;;;;;;;;;;4916273;29;20406;-77
2023/04/02 04:14:56;;;;;;;;;;;;;;;;;;4933413;29;19926;-78
2023/04/02 04:17:28;;;;;;;;;;;;;;;;;;4902793;29;19919;-78
2023/04/02 04:20:07;;;;;;;;;;;;;;;;;;4933732;29;19919;-79
2023/04/02 04:22:35;;;;;;;;;;;;;;;;;;4933232;29;19978;-78
2023/04/02 04:25:19;;;;;;;;;;;;;;;;;;4904924;29;20376;-77
2023/04/02 04:27:45;;;;;;;;;;;;;;;;;;4920402;29;19915;-78
2023/04/02 04:30:11;;;;;;;;;;;;;;;;;;4921376;29;19922;-77
2023/04/02 04:32:37;;;;;;;;;;;;;;;;;;4937809;29;20079;-79
2023/04/02 04:35:13;;;;;;;;;;;;;;;;;;4907466;29;19990;-79
2023/04/02 04:37:48;;;;;;;;;;;;;;;;;;4938445;29;19915;-78
2023/04/02 04:40:22;;;;;;;;;;;;;;;;;;4921192;29;20355;-78
2023/04/02 04:42:55;;;;;;;;;;;;;;;;;;4922392;29;19915;-78
2023/04/02 04:45:24;;;;;;;;;;;;;;;;;;4936286;29;19919;-79
2023/04/02 04:47:56;;;;;;;;;;;;;;;;;;4919832;29;19915;-79
2023/04/02 04:50:27;;;;;;;;;;;;;;;;;;4919906;29;19919;-79
2023/04/02 04:52:56;;;;;;;;;;;;;;;;;;4918754;29;19922;-78
2023/04/02 04:55:22;;;;;;;;;;;;;;;;;;4919002;29;19986;-80
2023/04/02 04:57:50;;;;;;;;;;;;;;;;;;4920003;29;19915;-78
2023/04/02 05:00:18;;;;;;;;;;;;;;;;;;4905277;29;20429;-79
2023/04/02 05:02:44;;;;;;;;;;;;;;;;;;4919747;29;19925;-78
2023/04/02 05:05:11;;;;;;;;;;;;;;;;;;4919074;29;19950;-79
2023/04/02 05:07:37;;;;;;;;;;;;;;;;;;4903291;29;19978;-78
2023/04/02 05:10:03;;;;;;;;;;;;;;;;;;4934527;29;19926;-79
2023/04/02 05:12:34;;;;;;;;;;;;;;;;;;4903338;29;19916;-79
2023/04/02 05:15:01;;;;;;;;;;;;;;;;;;4934749;29;19927;-76
2023/04/02 05:17:28;;;;;;;;;;;;;;;;;;4934032;29;19923;-77
2023/04/02 05:19:55;;;;;;;;;;;;;;;;;;4934827;29;19915;-79
2023/04/02 05:22:21;;;;;;;;;;;;;;;;;;4915959;29;19915;-77
2023/04/02 05:24:47;;;;;;;;;;;;;;;;;;4915536;29;19942;-78
2023/04/02 05:27:22;;;;;;;;;;;;;;;;;;4915341;29;19963;-77
2023/04/02 05:29:53;;;;;;;;;;;;;;;;;;4913679;29;19919;-79
2023/04/02 05:32:19;;;;;;;;;;;;;;;;;;4929113;29;19919;-77
2023/04/02 05:34:45;;;;;;;;;;;;;;;;;;4913913;29;19925;-77
2023/04/02 05:37:17;;;;;;;;;;;;;;;;;;4929600;29;19963;-78
2023/04/02 05:39:45;;;;;;;;;;;;;;;;;;4915217;29;19939;-77
2023/04/02 05:42:13;;;;;;;;;;;;;;;;;;4916671;29;19915;-78
2023/04/02 05:44:56;;;;;;;;;;;;;;;;;;4916598;29;19922;-80
2023/04/02 05:47:27;;;;;;;;;;;;;;;;;;4929953;29;19916;-78
2023/04/02 05:49:58;;;;;;;;;;;;;;;;;;4899950;29;19915;-78
2023/04/02 05:52:24;;;;;;;;;;;;;;;;;;4915880;29;19938;-78
2023/04/02 05:54:50;;;;;;;;;;;;;;;;;;4928656;29;19973;-77
2023/04/02 05:57:17;;;;;;;;;;;;;;;;;;4913958;29;19915;-77
2023/04/02 05:59:43;;;;;;;;;;;;;;;;;;4928856;29;19915;-78
2023/04/02 06:02:08;;;;;;;;;;;;;;;;;;4929544;29;19946;-77
2023/04/02 06:04:37;;;;;;;;;;;;;;;;;;4914622;29;19922;-78
2023/04/02 06:07:03;;;;;;;;;;;;;;;;;;4913776;29;19915;-78
2023/04/02 06:09:29;;;;;;;;;;;;;;;;;;4896028;29;19959;-78
2023/04/02 06:11:55;;;;;;;;;;;;;;;;;;4912316;29;19916;-78
2023/04/02 06:14:21;;;;;;;;;;;;;;;;;;4899087;29;19919;-78
2023/04/02 06:16:47;;;;;;;;;;;;;;;;;;4913826;29;19922;-79
2023/04/02 06:19:13;;;;;;;;;;;;;;;;;;4913959;29;19915;-78
2023/04/02 06:21:38;;;;;;;;;;;;;;;;;;4898852;29;20002;-77
2023/04/02 06:24:05;;;;;;;;;;;;;;;;;;4913705;29;19915;-79
2023/04/02 06:26:34;;;;;;;;;;;;;;;;;;4930119;29;19919;-78
2023/04/02 06:29:00;;;;;;;;;;;;;;;;;;4929695;29;20375;-78
2023/04/02 06:31:26;;;;;;;;;;;;;;;;;;5033368;23;20018;-83
2023/04/02 06:33:53;;;;;;;;;;;;;;;;;;4923082;29;19930;-83
2023/04/02 06:36:23;;;;;;;;;;;;;;;;;;4906284;29;19915;-84
2023/04/02 06:38:49;;;;;;;;;;;;;;;;;;4938536;29;19975;-83
2023/04/02 06:41:17;;;;;;;;;;;;;;;;;;4937695;29;20364;-84
2023/04/02 06:43:51;;;;;;;;;;;;;;;;;;4920038;29;19952;-83
2023/04/02 06:46:36;;;;;;;;;;;;;;;;;;4938103;29;19923;-83
2023/04/02 06:49:04;;;;;;;;;;;;;;;;;;4921858;29;19916;-84
2023/04/02 06:51:33;;;;;;;;;;;;;;;;;;4939425;29;19967;-84
2023/04/02 06:53:58;;;;;;;;;;;;;;;;;;4939689;29;19915;-83
2023/04/02 06:56:24;;;;;;;;;;;;;;;;;;4923193;29;19915;-83
2023/04/02 06:58:50;;;;;;;;;;;;;;;;;;4908767;28;19955;-84
2023/04/02 07:01:19;;;;;;;;;;;;;;;;;;4905454;29;19947;-83
2023/04/02 07:03:47;;;;;;;;;;;;;;;;;;4932981;29;19915;-81
2023/04/02 07:06:24;;;;;;;;;;;;;;;;;;4932364;29;19915;-82
2023/04/02 07:08:52;;;;;;;;;;;;;;;;;;4917011;29;19922;-83
2023/04/02 07:11:19;;;;;;;;;;;;;;;;;;4917306;29;19915;-82
2023/04/02 07:13:45;;;;;;;;;;;;;;;;;;4934836;29;19959;-83
2023/04/02 07:16:14;;;;;;;;;;;;;;;;;;4905781;29;19917;-83
2023/04/02 07:18:48;;;;;;;;;;;;;;;;;;4922168;29;19922;-84
2023/04/02 07:21:17;;;;;;;;;;;;;;;;;;4942004;29;19906;-82
2023/04/02 07:23:52;;;;;;;;;;;;;;;;;;4939933;29;19920;-83
2023/04/02 07:26:21;;;;;;;;;;;;;;;;;;4922253;29;19915;-81
2023/04/02 07:28:50;;;;;;;;;;;;;;;;;;4923481;29;19919;-82
2023/04/02 07:31:16;;;;;;;;;;;;;;;;;;4937734;29;19923;-82
2023/04/02 07:33:44;;;;;;;;;;;;;;;;;;4922286;29;20018;-81
2023/04/02 07:36:16;;;;;;;;;;;;;;;;;;4938002;29;19919;-82
2023/04/02 07:38:46;;;;;;;;;;;;;;;;;;4938860;29;20005;-82
2023/04/02 07:41:11;;;;;;;;;;;;;;;;;;4939596;29;19922;-82
2023/04/02 07:43:37;;;;;;;;;;;;;;;;;;4939248;29;19915;-83
2023/04/02 07:46:16;;;;;;;;;;;;;;;;;;4939846;29;19915;-82
2023/04/02 07:48:42;;;;;;;;;;;;;;;;;;4907873;29;19915;-83
2023/04/02 07:51:11;;;;;;;;;;;;;;;;;;4924026;29;19940;-83
2023/04/02 07:53:37;;;;;;;;;;;;;;;;;;4922747;29;19919;-83
2023/04/02 07:56:03;;;;;;;;;;;;;;;;;;4937691;29;19915;-82
2023/04/02 07:58:29;;;;;;;;;;;;;;;;;;4938128;29;19923;-82
2023/04/02 08:00:54;;;;;;;;;;;;;;;;;;4924180;29;19928;-83
2023/04/02 08:03:20;;;;;;;;;;;;;;;;;;4942733;29;19915;-83
2023/04/02 08:05:46;;;;;;;;;;;;;;;;;;4942254;29;19915;-82
2023/04/02 08:08:12;;;;;;;;;;;;;;;;;;4925945;29;19915;-82
2023/04/02 08:10:43;;;;;;;;;;;;;;;;;;4924307;29;19899;-83
2023/04/02 08:13:09;;;;;;;;;;;;;;;;;;4938931;29;19900;-82
2023/04/02 08:15:35;;;;;;;;;;;;;;;;;;4919878;29;19915;-82
2023/04/02 08:18:00;;;;;;;;;;;;;;;;;;4937143;29;20006;-82
2023/04/02 08:20:28;;;;;;;;;;;;;;;;;;4940445;29;19982;-82
2023/04/02 08:22:55;;;;;;;;;;;;;;;;;;4935553;29;19915;-82
2023/04/02 08:25:23;;;;;;;;;;;;;;;;;;4937740;29;19916;-83
2023/04/02 08:27:49;;;;;;;;;;;;;;;;;;4936280;29;19974;-82
2023/04/02 08:30:14;;;;;;;;;;;;;;;;;;4922067;29;19915;-81
2023/04/02 08:32:40;;;;;;;;;;;;;;;;;;4905175;29;19926;-82
2023/04/02 08:35:05;;;;;;;;;;;;;;;;;;4906675;29;19978;-82
2023/04/02 08:37:31;;;;;;;;;;;;;;;;;;4938682;29;19939;-82
2023/04/02 08:39:57;;;;;;;;;;;;;;;;;;4938691;29;19919;-82
2023/04/02 08:42:22;;;;;;;;;;;;;;;;;;4919927;29;19938;-82
2023/04/02 08:44:48;;;;;;;;;;;;;;;;;;4903224;29;19915;-82
2023/04/02 08:47:13;;;;;;;;;;;;;;;;;;4920926;29;19915;-83
2023/04/02 08:49:39;;;;;;;;;;;;;;;;;;4922418;29;19916;-82
2023/04/02 08:52:05;;;;;;;;;;;;;;;;;;4905198;29;19986;-82
2023/04/02 08:54:30;;;;;;;;;;;;;;;;;;4936873;29;19919;-82
2023/04/02 08:56:56;;;;;;;;;;;;;;;;;;4937191;29;19915;-82
2023/04/02 08:59:21;;;;;;;;;;;;;;;;;;4921677;29;19922;-82
2023/04/02 09:01:47;;;;;;;;;;;;;;;;;;4934027;29;19926;-82
2023/04/02 09:04:13;;;;;;;;;;;;;;;;;;4938215;29;19968;-83
2023/04/02 09:06:38;;;;;;;;;;;;;;;;;;4937968;29;19940;-82
2023/04/02 09:09:04;;;;;;;;;;;;;;;;;;4920003;29;19915;-82
2023/04/02 09:11:30;;;;;;;;;;;;;;;;;;4935023;29;19939;-82
2023/04/02 09:13:56;;;;;;;;;;;;;;;;;;4936888;29;20159;-82
2023/04/02 09:16:24;;;;;;;;;;;;;;;;;;4937904;29;19915;-82
2023/04/02 09:18:55;;;;;;;;;;;;;;;;;;4938726;29;19995;-83
2023/04/02 09:21:27;;;;;;;;;;;;;;;;;;4920662;29;19954;-82
2023/04/02 09:23:52;;;;;;;;;;;;;;;;;;4921184;29;19916;-82
2023/04/02 09:26:18;;;;;;;;;;;;;;;;;;4920774;29;19922;-82
2023/04/02 09:28:46;;;;;;;;;;;;;;;;;;4906079;29;19946;-83
2023/04/02 09:31:12;;;;;;;;;;;;;;;;;;4938572;29;19943;-82
2023/04/02 09:33:37;;;;;;;;;;;;;;;;;;4936207;29;20454;-82
2023/04/02 09:36:03;;;;;;;;;;;;;;;;;;4922053;29;19939;-82
2023/04/02 09:38:34;;;;;;;;;;;;;;;;;;4922917;29;20413;-82
2023/04/02 09:41:00;;;;;;;;;;;;;;;;;;4937986;29;19915;-82
2023/04/02 09:43:28;;;;;;;;;;;;;;;;;;4939836;28;19903;-83
2023/04/02 09:45:59;;;;;;;;;;;;;;;;;;4926079;28;19919;-83
2023/04/02 09:48:31;;;;;;;;;;;;;;;;;;4939088;29;19906;-82
2023/04/02 09:50:57;;;;;;;;;;;;;;;;;;4923610;29;19942;-83
2023/04/02 09:53:23;;;;;;;;;;;;;;;;;;4924039;29;19911;-83
2023/04/02 09:55:49;;;;;;;;;;;;;;;;;;4939941;29;20398;-83
2023/04/02 09:58:14;;;;;;;;;;;;;;;;;;4939941;29;19938;-84
2023/04/02 10:00:40;;;;;;;;;;;;;;;;;;4938619;29;19955;-83
2023/04/02 10:03:06;;;;;;;;;;;;;;;;;;4940235;28;19907;-83
2023/04/02 10:05:35;;;;;;;;;;;;;;;;;;4923903;29;19946;-83
2023/04/02 10:08:00;;;;;;;;;;;;;;;;;;4940393;28;19926;-82
2023/04/02 10:10:28;;;;;;;;;;;;;;;;;;4923302;29;19903;-84
2023/04/02 10:12:56;;;;;;;;;;;;;;;;;;4937717;29;19899;-82
2023/04/02 10:15:24;;;;;;;;;;;;;;;;;;4938063;29;19923;-82
2023/04/02 10:17:50;;;;;;;;;;;;;;;;;;4921667;29;19992;-81
2023/04/02 10:20:16;;;;;;;;;;;;;;;;;;4937075;29;19939;-82
2023/04/02 10:22:41;;;;;;;;;;;;;;;;;;4937963;29;19903;-82
2023/04/02 10:25:07;;;;;;;;;;;;;;;;;;4936637;29;19919;-82
2023/04/02 10:27:32;;;;;;;;;;;;;;;;;;4938795;29;19915;-82
2023/04/02 10:30:01;;;;;;;;;;;;;;;;;;4905353;29;19978;-81
2023/04/02 10:32:26;;;;;;;;;;;;;;;;;;4919118;29;19919;-82
2023/04/02 10:34:52;;;;;;;;;;;;;;;;;;4921490;29;19910;-82
2023/04/02 10:37:17;;;;;;;;;;;;;;;;;;4904643;29;19958;-82
2023/04/02 10:39:43;;;;;;;;;;;;;;;;;;4934125;29;19915;-83
2023/04/02 10:42:09;;;;;;;;;;;;;;;;;;4933004;29;19974;-82
2023/04/02 10:44:36;;;;;;;;;;;;;;;;;;4934592;29;19899;-82
2023/04/02 10:47:01;;;;;;;;;;;;;;;;;;4935320;29;19915;-82
2023/04/02 10:49:27;;;;;;;;;;;;;;;;;;4935949;29;19950;-82
2023/04/02 10:51:56;;;;;;;;;;;;;;;;;;4934648;29;19915;-82
2023/04/02 10:54:29;;;;;;;;;;;;;;;;;;4912693;29;19919;-82
2023/04/02 10:56:55;;;;;;;;;;;;;;;;;;4915220;29;19948;-82
2023/04/02 10:59:20;;;;;;;;;;;;;;;;;;4932312;29;20062;-82
2023/04/02 11:01:49;;;;;;;;;;;;;;;;;;4938042;29;19943;-82
2023/04/02 11:04:14;;;;;;;;;;;;;;;;;;4907288;29;19923;-82
2023/04/02 11:06:40;;;;;;;;;;;;;;;;;;4904848;29;19976;-82
2023/04/02 11:09:09;;;;;;;;;;;;;;;;;;4941349;29;19915;-82
2023/04/02 11:11:38;;;;;;;;;;;;;;;;;;4940583;29;19947;-82
2023/04/02 11:14:03;;;;;;;;;;;;;;;;;;4942286;29;19903;-81
2023/04/02 11:16:28;;;;;;;;;;;;;;;;;;4943001;29;19907;-81
2023/04/02 11:18:54;;;;;;;;;;;;;;;;;;4938494;29;20323;-82
2023/04/02 11:21:20;;;;;;;;;;;;;;;;;;4936082;29;19900;-83
2023/04/02 11:23:45;;;;;;;;;;;;;;;;;;4938591;29;20390;-82
2023/04/02 11:26:11;;;;;;;;;;;;;;;;;;4936364;29;19915;-82
2023/04/02 11:28:36;;;;;;;;;;;;;;;;;;4935681;29;19991;-82
2023/04/02 11:31:02;;;;;;;;;;;;;;;;;;4934796;29;19950;-82
2023/04/02 11:33:27;;;;;;;;;;;;;;;;;;4936743;29;19904;-82
2023/04/02 11:35:53;;;;;;;;;;;;;;;;;;4937575;29;19974;-82
2023/04/02 11:38:18;;;;;;;;;;;;;;;;;;4937485;29;19951;-82
2023/04/02 11:40:44;;;;;;;;;;;;;;;;;;4921306;29;19915;-82
2023/04/02 11:43:10;;;;;;;;;;;;;;;;;;4922693;29;19922;-82
2023/04/02 11:45:38;;;;;;;;;;;;;;;;;;4938315;29;19994;-82
2023/04/02 11:48:06;;;;;;;;;;;;;;;;;;4922203;29;19922;-83
2023/04/02 11:50:32;;;;;;;;;;;;;;;;;;4934364;29;19915;-82
2023/04/02 11:52:58;;;;;;;;;;;;;;;;;;4935161;29;19983;-83
2023/04/02 11:55:26;;;;;;;;;;;;;;;;;;4916057;29;19919;-83
2023/04/02 11:57:51;;;;;;;;;;;;;;;;;;4918601;29;20382;-82
2023/04/02 12:00:17;;;;;;;;;;;;;;;;;;4933465;29;19919;-83
2023/04/02 12:02:42;;;;;;;;;;;;;;;;;;4933544;29;20010;-82
2023/04/02 12:05:08;;;;;;;;;;;;;;;;;;4934700;29;19915;-83
2023/04/02 12:07:34;;;;;;;;;;;;;;;;;;4933852;29;19915;-82
2023/04/02 12:09:59;;;;;;;;;;;;;;;;;;4932990;29;19911;-82
2023/04/02 12:12:25;;;;;;;;;;;;;;;;;;4918559;29;19915;-82
2023/04/02 12:14:50;;;;;;;;;;;;;;;;;;4934142;29;19919;-82
2023/04/02 12:17:16;;;;;;;;;;;;;;;;;;4933754;29;19983;-82
2023/04/02 12:19:42;;;;;;;;;;;;;;;;;;4934372;29;19915;-82
2023/04/02 12:22:12;;;;;;;;;;;;;;;;;;4934476;29;19915;-82
2023/04/02 12:24:37;;;;;;;;;;;;;;;;;;4948413;23;19927;-82
2023/04/02 12:27:03;;;;;;;;;;;;;;;;;;4917656;29;19921;-82
2023/04/02 12:29:28;;;;;;;;;;;;;;;;;;4935355;29;20383;-82
2023/04/02 12:31:54;;;;;;;;;;;;;;;;;;4917586;29;19962;-83
2023/04/02 12:34:22;;;;;;;;;;;;;;;;;;4900694;29;19954;-83
2023/04/02 12:36:49;;;;;;;;;;;;;;;;;;4917806;29;19915;-82
2023/04/02 12:39:14;;;;;;;;;;;;;;;;;;4933386;29;19918;-83
2023/04/02 12:41:40;;;;;;;;;;;;;;;;;;4901237;29;19915;-82
2023/04/02 12:44:10;;;;;;;;;;;;;;;;;;4901697;29;20315;-82
2023/04/02 12:46:36;;;;;;;;;;;;;;;;;;4901166;29;19924;-82
2023/04/02 12:49:02;;;;;;;;;;;;;;;;;;4916179;29;20045;-82
2023/04/02 12:51:28;;;;;;;;;;;;;;;;;;4931043;29;20364;-83
2023/04/02 12:53:54;;;;;;;;;;;;;;;;;;4918077;29;19927;-83
2023/04/02 12:56:23;;;;;;;;;;;;;;;;;;4915620;29;19950;-82
2023/04/02 12:58:48;;;;;;;;;;;;;;;;;;4912797;29;19922;-82
2023/04/02 13:01:14;;;;;;;;;;;;;;;;;;4932018;29;19916;-83
2023/04/02 13:03:40;;;;;;;;;;;;;;;;;;4914903;29;19915;-83
2023/04/02 13:06:06;;;;;;;;;;;;;;;;;;4914525;29;19922;-82
2023/04/02 13:08:32;;;;;;;;;;;;;;;;;;4915846;29;19919;-83
2023/04/02 13:10:57;;;;;;;;;;;;;;;;;;4901128;29;19922;-83
2023/04/02 13:13:23;;;;;;;;;;;;;;;;;;4917144;29;19957;-83
2023/04/02 13:15:49;;;;;;;;;;;;;;;;;;4933889;29;19923;-82
2023/04/02 13:18:14;;;;;;;;;;;;;;;;;;4919242;29;19916;-82
2023/04/02 13:20:40;;;;;;;;;;;;;;;;;;4902698;29;19997;-82
2023/04/02 13:23:06;;;;;;;;;;;;;;;;;;4917633;29;19986;-83
2023/04/02 13:25:31;;;;;;;;;;;;;;;;;;4932957;29;19966;-82
2023/04/02 13:27:57;;;;;;;;;;;;;;;;;;4918269;29;19915;-83
2023/04/02 13:30:24;;;;;;;;;;;;;;;;;;4917743;29;19940;-82
2023/04/02 13:32:53;;;;;;;;;;;;;;;;;;4915957;29;19915;-82
2023/04/02 13:35:24;;;;;;;;;;;;;;;;;;4915334;29;19930;-82
2023/04/02 13:37:50;;;;;;;;;;;;;;;;;;4914150;29;19915;-82
2023/04/02 13:40:15;;;;;;;;;;;;;;;;;;4928851;29;19921;-82
2023/04/02 13:42:41;;;;;;;;;;;;;;;;;;4916754;29;19947;-81
2023/04/02 13:45:06;;;;;;;;;;;;;;;;;;4903951;29;19941;-82
2023/04/02 13:47:32;;;;;;;;;;;;;;;;;;4919973;29;19918;-82
2023/04/02 13:49:58;;;;;;;;;;;;;;;;;;4918407;29;19939;-82
2023/04/02 13:52:27;;;;;;;;;;;;;;;;;;4919526;29;19916;-82
2023/04/02 13:54:55;;;;;;;;;;;;;;;;;;4931199;29;20378;-83
2023/04/02 13:57:20;;;;;;;;;;;;;;;;;;4932683;29;19916;-82
2023/04/02 13:59:46;;;;;;;;;;;;;;;;;;4917208;29;19939;-82
2023/04/02 14:02:12;;;;;;;;;;;;;;;;;;4903489;29;19919;-81
2023/04/02 14:04:38;;;;;;;;;;;;;;;;;;4898266;29;19916;-80
2023/04/02 14:07:03;;;;;;;;;;;;;;;;;;4899824;29;19912;-80
2023/04/02 14:09:29;;;;;;;;;;;;;;;;;;4914418;29;20359;-80
2023/04/02 14:11:54;;;;;;;;;;;;;;;;;;4898387;29;19922;-80
2023/04/02 14:14:19;;;;;;;;;;;;;;;;;;4899621;29;19919;-80
2023/04/02 14:16:45;;;;;;;;;;;;;;;;;;4900501;29;19915;-80
2023/04/02 14:19:10;;;;;;;;;;;;;;;;;;4915595;29;20344;-80
2023/04/02 14:21:36;;;;;;;;;;;;;;;;;;4916966;29;19940;-82
2023/04/02 14:24:01;;;;;;;;;;;;;;;;;;4915552;29;19919;-80
2023/04/02 14:26:26;;;;;;;;;;;;;;;;;;4916772;29;19942;-81
2023/04/02 14:28:56;;;;;;;;;;;;;;;;;;4900130;29;19916;-80
2023/04/02 14:31:21;;;;;;;;;;;;;;;;;;4899687;29;19915;-81
2023/04/02 14:33:47;;;;;;;;;;;;;;;;;;4901647;29;20394;-81
2023/04/02 14:36:12;;;;;;;;;;;;;;;;;;4900582;29;20374;-80
2023/04/02 14:38:39;;;;;;;;;;;;;;;;;;4906098;29;19916;-81
2023/04/02 14:41:04;;;;;;;;;;;;;;;;;;4934722;29;20442;-82
2023/04/02 14:43:30;;;;;;;;;;;;;;;;;;4918808;29;19943;-81
2023/04/02 14:45:56;;;;;;;;;;;;;;;;;;4918213;29;19899;-81
2023/04/02 14:48:23;;;;;;;;;;;;;;;;;;4920438;29;19919;-81
2023/04/02 14:50:49;;;;;;;;;;;;;;;;;;4917764;29;19904;-81
2023/04/02 14:53:14;;;;;;;;;;;;;;;;;;4919730;29;19945;-80
2023/04/02 14:55:42;;;;;;;;;;;;;;;;;;4936209;29;19924;-81
2023/04/02 14:58:07;;;;;;;;;;;;;;;;;;4910304;29;19990;-80
2023/04/02 15:00:33;;;;;;;;;;;;;;;;;;4901897;29;20463;-81
2023/04/02 15:02:59;;;;;;;;;;;;;;;;;;4917417;29;20006;-81
2023/04/02 15:05:26;;;;;;;;;;;;;;;;;;4904794;29;19915;-81
2023/04/02 15:07:52;;;;;;;;;;;;;;;;;;4904841;29;19920;-81
2023/04/02 15:10:17;;;;;;;;;;;;;;;;;;4905066;29;20451;-81
2023/04/02 15:12:43;;;;;;;;;;;;;;;;;;4904735;29;19947;-81
2023/04/02 15:15:08;;;;;;;;;;;;;;;;;;4887192;29;19919;-82
2023/04/02 15:17:34;;;;;;;;;;;;;;;;;;4902328;29;19916;-81
2023/04/02 15:20:00;;;;;;;;;;;;;;;;;;4917733;29;19922;-81
2023/04/02 15:22:26;;;;;;;;;;;;;;;;;;4916705;29;19915;-81
2023/04/02 15:24:51;;;;;;;;;;;;;;;;;;4916254;29;19924;-81
2023/04/02 15:27:16;;;;;;;;;;;;;;;;;;4901419;29;19940;-79
2023/04/02 15:29:42;;;;;;;;;;;;;;;;;;4901679;29;19920;-79
2023/04/02 15:32:07;;;;;;;;;;;;;;;;;;4915032;29;19915;-81
2023/04/02 15:34:33;;;;;;;;;;;;;;;;;;4899784;29;19919;-81
2023/04/02 15:36:59;;;;;;;;;;;;;;;;;;4899745;29;20566;-81
2023/04/02 15:39:24;;;;;;;;;;;;;;;;;;4900996;29;20383;-80
2023/04/02 15:41:50;;;;;;;;;;;;;;;;;;4917574;29;19916;-80
2023/04/02 15:44:15;;;;;;;;;;;;;;;;;;4903914;29;20372;-79
2023/04/02 15:46:40;;;;;;;;;;;;;;;;;;4910795;29;20387;-80
2023/04/02 15:49:06;;;;;;;;;;;;;;;;;;4888316;29;19915;-80
2023/04/02 15:51:31;;;;;;;;;;;;;;;;;;4903718;29;20395;-80
2023/04/02 15:53:57;;;;;;;;;;;;;;;;;;4919074;29;19942;-80
2023/04/02 15:56:25;;;;;;;;;;;;;;;;;;4904576;29;20399;-80
2023/04/02 15:58:50;;;;;;;;;;;;;;;;;;4903596;29;19923;-80
2023/04/02 16:01:17;;;;;;;;;;;;;;;;;;4918704;29;19915;-80
2023/04/02 16:03:42;;;;;;;;;;;;;;;;;;4904298;29;19954;-80
2023/04/02 16:06:11;;;;;;;;;;;;;;;;;;4902411;29;19971;-80
2023/04/02 16:08:37;;;;;;;;;;;;;;;;;;4903381;29;20426;-80
2023/04/02 16:11:02;;;;;;;;;;;;;;;;;;4918049;29;19919;-81
2023/04/02 16:13:28;;;;;;;;;;;;;;;;;;4903579;29;19944;-80
2023/04/02 16:15:53;;;;;;;;;;;;;;;;;;4903136;29;19919;-80
2023/04/02 16:18:18;;;;;;;;;;;;;;;;;;4904407;29;20380;-80
2023/04/02 16:20:44;;;;;;;;;;;;;;;;;;4920643;29;20010;-79
2023/04/02 16:23:10;;;;;;;;;;;;;;;;;;4904882;29;19922;-80
2023/04/02 16:25:35;;;;;;;;;;;;;;;;;;4904095;29;19926;-80
2023/04/02 16:28:01;;;;;;;;;;;;;;;;;;4904180;29;19940;-80
2023/04/02 16:30:26;;;;;;;;;;;;;;;;;;4904225;29;19921;-79
2023/04/02 16:32:51;;;;;;;;;;;;;;;;;;4920055;29;19919;-80
2023/04/02 16:35:17;;;;;;;;;;;;;;;;;;4905001;29;19920;-80
2023/04/02 16:37:42;;;;;;;;;;;;;;;;;;4906859;29;20006;-81
2023/04/02 16:40:08;;;;;;;;;;;;;;;;;;4906167;29;19978;-81
2023/04/02 16:42:33;;;;;;;;;;;;;;;;;;4904790;29;19915;-80
2023/04/02 16:44:59;;;;;;;;;;;;;;;;;;4921033;29;20004;-81